sensor_id;sensor_type;location;lat;lon;timestamp;P1;durP1;ratioP1;P2;durP2;ratioP2
25327;SDS011;13279;51.300;12.394;2023-02-18T00:01:19;11.60;;;2.60;;
25327;SDS011;13279;51.300;12.394;2023-02-18T00:03:48;5.90;;;2.20;;
25327;SDS011;13279;51.300;12.394;2023-02-18T00:06:17;4.83;;;2.57;;
25327;SDS011;13279;51.300;12.394;2023-02-18T00:08:47;4.57;;;1.90;;
25327;SDS011;13279;51.300;12.394;2023-02-18T00:11:16;5.73;;;2.70;;
25327;SDS011;13279;51.300;12.394;2023-02-18T00:13:48;4.93;;;1.87;;
25327;SDS011;13279;51.300;12.394;2023-02-18T00:16:16;6.23;;;1.80;;
25327;SDS011;13279;51.300;12.394;2023-02-18T00:18:43;3.70;;;1.93;;
25327;SDS011;13279;51.300;12.394;2023-02-18T00:21:10;7.80;;;2.30;;
25327;SDS011;13279;51.300;12.394;2023-02-18T00:23:39;6.70;;;1.67;;
25327;SDS011;13279;51.300;12.394;2023-02-18T00:26:08;7.90;;;1.70;;
25327;SDS011;13279;51.300;12.394;2023-02-18T00:28:39;10.67;;;1.70;;
25327;SDS011;13279;51.300;12.394;2023-02-18T00:31:08;3.60;;;1.00;;
25327;SDS011;13279;51.300;12.394;2023-02-18T00:33:37;4.67;;;1.70;;
25327;SDS011;13279;51.300;12.394;2023-02-18T00:36:05;8.03;;;1.43;;
25327;SDS011;13279;51.300;12.394;2023-02-18T00:38:34;6.57;;;1.30;;
25327;SDS011;13279;51.300;12.394;2023-02-18T00:41:04;6.17;;;1.37;;
25327;SDS011;13279;51.300;12.394;2023-02-18T00:43:32;3.40;;;0.87;;
25327;SDS011;13279;51.300;12.394;2023-02-18T00:46:00;2.57;;;1.30;;
25327;SDS011;13279;51.300;12.394;2023-02-18T00:48:28;8.43;;;1.37;;
25327;SDS011;13279;51.300;12.394;2023-02-18T00:50:55;9.27;;;1.80;;
25327;SDS011;13279;51.300;12.394;2023-02-18T00:53:23;9.97;;;1.97;;
25327;SDS011;13279;51.300;12.394;2023-02-18T00:55:50;5.70;;;1.10;;
25327;SDS011;13279;51.300;12.394;2023-02-18T00:58:19;6.57;;;1.30;;
25327;SDS011;13279;51.300;12.394;2023-02-18T01:00:47;2.83;;;1.33;;
25327;SDS011;13279;51.300;12.394;2023-02-18T01:03:15;6.57;;;1.20;;
25327;SDS011;13279;51.300;12.394;2023-02-18T01:05:42;6.90;;;1.40;;
25327;SDS011;13279;51.300;12.394;2023-02-18T01:08:10;3.03;;;0.90;;
25327;SDS011;13279;51.300;12.394;2023-02-18T01:10:39;3.77;;;1.10;;
25327;SDS011;13279;51.300;12.394;2023-02-18T01:13:10;5.07;;;1.40;;
25327;SDS011;13279;51.300;12.394;2023-02-18T01:15:39;7.77;;;1.70;;
25327;SDS011;13279;51.300;12.394;2023-02-18T01:18:09;5.93;;;1.33;;
25327;SDS011;13279;51.300;12.394;2023-02-18T01:20:37;5.27;;;1.27;;
25327;SDS011;13279;51.300;12.394;2023-02-18T01:23:06;3.80;;;1.70;;
25327;SDS011;13279;51.300;12.394;2023-02-18T01:25:34;6.63;;;1.43;;
25327;SDS011;13279;51.300;12.394;2023-02-18T01:28:02;6.00;;;1.50;;
25327;SDS011;13279;51.300;12.394;2023-02-18T01:30:30;8.97;;;1.43;;
25327;SDS011;13279;51.300;12.394;2023-02-18T01:32:59;4.53;;;1.53;;
25327;SDS011;13279;51.300;12.394;2023-02-18T01:35:27;13.33;;;1.50;;
25327;SDS011;13279;51.300;12.394;2023-02-18T01:37:55;1.80;;;1.00;;
25327;SDS011;13279;51.300;12.394;2023-02-18T01:40:23;7.33;;;1.30;;
25327;SDS011;13279;51.300;12.394;2023-02-18T01:42:53;3.60;;;1.10;;
25327;SDS011;13279;51.300;12.394;2023-02-18T01:45:36;4.70;;;1.20;;
25327;SDS011;13279;51.300;12.394;2023-02-18T01:48:21;4.13;;;1.33;;
25327;SDS011;13279;51.300;12.394;2023-02-18T01:50:52;6.27;;;1.50;;
25327;SDS011;13279;51.300;12.394;2023-02-18T01:53:25;9.00;;;1.20;;
25327;SDS011;13279;51.300;12.394;2023-02-18T01:55:57;8.07;;;1.50;;
25327;SDS011;13279;51.300;12.394;2023-02-18T01:58:26;5.90;;;1.43;;
25327;SDS011;13279;51.300;12.394;2023-02-18T02:00:53;7.50;;;1.07;;
25327;SDS011;13279;51.300;12.394;2023-02-18T02:03:22;10.00;;;1.50;;
25327;SDS011;13279;51.300;12.394;2023-02-18T02:05:50;10.80;;;1.50;;
25327;SDS011;13279;51.300;12.394;2023-02-18T02:08:17;5.50;;;1.60;;
25327;SDS011;13279;51.300;12.394;2023-02-18T02:10:59;9.83;;;1.30;;
25327;SDS011;13279;51.300;12.394;2023-02-18T02:13:43;6.67;;;1.10;;
25327;SDS011;13279;51.300;12.394;2023-02-18T02:16:28;7.00;;;1.50;;
25327;SDS011;13279;51.300;12.394;2023-02-18T02:19:06;2.47;;;1.23;;
25327;SDS011;13279;51.300;12.394;2023-02-18T02:22:06;7.20;;;1.43;;
25327;SDS011;13279;51.300;12.394;2023-02-18T02:25:18;6.43;;;1.47;;
25327;SDS011;13279;51.300;12.394;2023-02-18T02:28:10;7.97;;;2.10;;
25327;SDS011;13279;51.300;12.394;2023-02-18T02:31:10;4.17;;;1.77;;
25327;SDS011;13279;51.300;12.394;2023-02-18T02:34:21;9.43;;;1.83;;
25327;SDS011;13279;51.300;12.394;2023-02-18T02:37:06;6.00;;;1.30;;
25327;SDS011;13279;51.300;12.394;2023-02-18T02:39:42;7.60;;;2.43;;
25327;SDS011;13279;51.300;12.394;2023-02-18T02:42:23;3.90;;;1.47;;
25327;SDS011;13279;51.300;12.394;2023-02-18T02:44:58;6.23;;;2.03;;
25327;SDS011;13279;51.300;12.394;2023-02-18T02:47:33;10.13;;;1.63;;
25327;SDS011;13279;51.300;12.394;2023-02-18T02:50:08;7.70;;;2.10;;
25327;SDS011;13279;51.300;12.394;2023-02-18T02:52:40;6.03;;;1.50;;
25327;SDS011;13279;51.300;12.394;2023-02-18T02:55:12;5.10;;;1.20;;
25327;SDS011;13279;51.300;12.394;2023-02-18T02:57:48;6.80;;;1.57;;
25327;SDS011;13279;51.300;12.394;2023-02-18T03:00:22;9.57;;;1.70;;
25327;SDS011;13279;51.300;12.394;2023-02-18T03:06:05;10.00;;;1.40;;
25327;SDS011;13279;51.300;12.394;2023-02-18T03:08:50;3.97;;;1.83;;
25327;SDS011;13279;51.300;12.394;2023-02-18T03:11:25;13.43;;;2.50;;
25327;SDS011;13279;51.300;12.394;2023-02-18T03:14:00;10.33;;;2.07;;
25327;SDS011;13279;51.300;12.394;2023-02-18T03:16:39;9.13;;;2.43;;
25327;SDS011;13279;51.300;12.394;2023-02-18T03:19:16;4.07;;;1.87;;
25327;SDS011;13279;51.300;12.394;2023-02-18T03:21:48;5.77;;;2.07;;
25327;SDS011;13279;51.300;12.394;2023-02-18T03:24:19;6.80;;;2.00;;
25327;SDS011;13279;51.300;12.394;2023-02-18T03:26:53;9.03;;;2.20;;
25327;SDS011;13279;51.300;12.394;2023-02-18T03:29:25;6.53;;;2.10;;
25327;SDS011;13279;51.300;12.394;2023-02-18T03:31:54;9.60;;;2.10;;
25327;SDS011;13279;51.300;12.394;2023-02-18T03:34:27;6.53;;;1.57;;
25327;SDS011;13279;51.300;12.394;2023-02-18T03:36:58;10.00;;;2.03;;
25327;SDS011;13279;51.300;12.394;2023-02-18T03:39:28;9.57;;;1.83;;
25327;SDS011;13279;51.300;12.394;2023-02-18T03:41:58;8.03;;;1.93;;
25327;SDS011;13279;51.300;12.394;2023-02-18T03:44:25;3.90;;;1.43;;
25327;SDS011;13279;51.300;12.394;2023-02-18T03:46:53;10.00;;;2.27;;
25327;SDS011;13279;51.300;12.394;2023-02-18T03:49:21;8.53;;;1.77;;
25327;SDS011;13279;51.300;12.394;2023-02-18T03:51:49;9.87;;;2.13;;
25327;SDS011;13279;51.300;12.394;2023-02-18T03:54:18;5.53;;;1.67;;
25327;SDS011;13279;51.300;12.394;2023-02-18T03:56:46;8.43;;;1.97;;
25327;SDS011;13279;51.300;12.394;2023-02-18T03:59:13;10.40;;;1.83;;
25327;SDS011;13279;51.300;12.394;2023-02-18T04:01:41;8.60;;;2.10;;
25327;SDS011;13279;51.300;12.394;2023-02-18T04:04:08;9.10;;;2.00;;
25327;SDS011;13279;51.300;12.394;2023-02-18T04:06:36;7.93;;;2.20;;
25327;SDS011;13279;51.300;12.394;2023-02-18T04:09:04;5.90;;;1.80;;
25327;SDS011;13279;51.300;12.394;2023-02-18T04:11:35;3.83;;;1.70;;
25327;SDS011;13279;51.300;12.394;2023-02-18T04:14:03;13.50;;;2.20;;
25327;SDS011;13279;51.300;12.394;2023-02-18T04:16:31;3.73;;;1.87;;
25327;SDS011;13279;51.300;12.394;2023-02-18T04:18:59;16.40;;;2.00;;
25327;SDS011;13279;51.300;12.394;2023-02-18T04:21:26;9.70;;;2.10;;
25327;SDS011;13279;51.300;12.394;2023-02-18T04:23:54;6.20;;;1.60;;
25327;SDS011;13279;51.300;12.394;2023-02-18T04:26:22;11.73;;;2.23;;
25327;SDS011;13279;51.300;12.394;2023-02-18T04:28:51;18.10;;;2.30;;
25327;SDS011;13279;51.300;12.394;2023-02-18T04:31:18;12.67;;;2.60;;
25327;SDS011;13279;51.300;12.394;2023-02-18T04:33:46;7.13;;;2.53;;
25327;SDS011;13279;51.300;12.394;2023-02-18T04:36:13;11.53;;;2.80;;
25327;SDS011;13279;51.300;12.394;2023-02-18T04:38:40;7.70;;;3.07;;
25327;SDS011;13279;51.300;12.394;2023-02-18T04:41:08;11.17;;;2.60;;
25327;SDS011;13279;51.300;12.394;2023-02-18T04:43:37;19.40;;;3.97;;
25327;SDS011;13279;51.300;12.394;2023-02-18T04:46:06;9.57;;;3.00;;
25327;SDS011;13279;51.300;12.394;2023-02-18T04:48:33;14.57;;;3.77;;
25327;SDS011;13279;51.300;12.394;2023-02-18T04:51:00;15.17;;;4.20;;
25327;SDS011;13279;51.300;12.394;2023-02-18T04:53:28;16.60;;;4.70;;
25327;SDS011;13279;51.300;12.394;2023-02-18T04:55:56;23.30;;;5.03;;
25327;SDS011;13279;51.300;12.394;2023-02-18T04:58:23;10.33;;;4.70;;
25327;SDS011;13279;51.300;12.394;2023-02-18T05:00:51;16.00;;;4.90;;
25327;SDS011;13279;51.300;12.394;2023-02-18T05:03:20;15.23;;;6.07;;
25327;SDS011;13279;51.300;12.394;2023-02-18T05:05:48;17.27;;;6.00;;
25327;SDS011;13279;51.300;12.394;2023-02-18T05:08:15;17.20;;;6.47;;
25327;SDS011;13279;51.300;12.394;2023-02-18T05:10:43;12.73;;;5.63;;
25327;SDS011;13279;51.300;12.394;2023-02-18T05:13:11;16.63;;;5.43;;
25327;SDS011;13279;51.300;12.394;2023-02-18T05:15:38;22.50;;;6.77;;
25327;SDS011;13279;51.300;12.394;2023-02-18T05:18:05;20.20;;;7.53;;
25327;SDS011;13279;51.300;12.394;2023-02-18T05:20:34;23.13;;;7.70;;
25327;SDS011;13279;51.300;12.394;2023-02-18T05:23:02;24.03;;;8.83;;
25327;SDS011;13279;51.300;12.394;2023-02-18T05:25:30;22.60;;;7.80;;
25327;SDS011;13279;51.300;12.394;2023-02-18T05:27:57;22.43;;;8.07;;
25327;SDS011;13279;51.300;12.394;2023-02-18T05:30:24;26.90;;;8.57;;
25327;SDS011;13279;51.300;12.394;2023-02-18T05:32:52;17.87;;;8.63;;
25327;SDS011;13279;51.300;12.394;2023-02-18T05:35:19;21.97;;;9.57;;
25327;SDS011;13279;51.300;12.394;2023-02-18T05:37:48;22.63;;;9.53;;
25327;SDS011;13279;51.300;12.394;2023-02-18T05:40:16;22.27;;;9.20;;
25327;SDS011;13279;51.300;12.394;2023-02-18T05:42:43;19.83;;;9.37;;
25327;SDS011;13279;51.300;12.394;2023-02-18T05:45:11;31.80;;;11.80;;
25327;SDS011;13279;51.300;12.394;2023-02-18T05:47:38;24.00;;;10.37;;
25327;SDS011;13279;51.300;12.394;2023-02-18T05:50:06;22.07;;;10.53;;
25327;SDS011;13279;51.300;12.394;2023-02-18T05:52:34;22.57;;;9.27;;
25327;SDS011;13279;51.300;12.394;2023-02-18T05:55:03;20.70;;;10.17;;
25327;SDS011;13279;51.300;12.394;2023-02-18T05:57:30;28.27;;;10.63;;
25327;SDS011;13279;51.300;12.394;2023-02-18T05:59:58;25.37;;;11.20;;
25327;SDS011;13279;51.300;12.394;2023-02-18T06:02:26;24.03;;;9.73;;
25327;SDS011;13279;51.300;12.394;2023-02-18T06:04:53;30.07;;;9.57;;
25327;SDS011;13279;51.300;12.394;2023-02-18T06:07:20;24.90;;;10.20;;
25327;SDS011;13279;51.300;12.394;2023-02-18T06:09:48;25.10;;;9.70;;
25327;SDS011;13279;51.300;12.394;2023-02-18T06:12:17;22.53;;;10.40;;
25327;SDS011;13279;51.300;12.394;2023-02-18T06:14:44;20.70;;;9.60;;
25327;SDS011;13279;51.300;12.394;2023-02-18T06:17:12;21.67;;;9.20;;
25327;SDS011;13279;51.300;12.394;2023-02-18T06:19:43;23.97;;;9.83;;
25327;SDS011;13279;51.300;12.394;2023-02-18T06:22:10;22.50;;;10.00;;
25327;SDS011;13279;51.300;12.394;2023-02-18T06:24:38;20.43;;;9.87;;
25327;SDS011;13279;51.300;12.394;2023-02-18T06:27:05;21.67;;;9.97;;
25327;SDS011;13279;51.300;12.394;2023-02-18T06:29:34;26.57;;;10.60;;
25327;SDS011;13279;51.300;12.394;2023-02-18T06:32:02;19.50;;;9.60;;
25327;SDS011;13279;51.300;12.394;2023-02-18T06:34:29;24.13;;;9.43;;
25327;SDS011;13279;51.300;12.394;2023-02-18T06:36:57;31.07;;;10.80;;
25327;SDS011;13279;51.300;12.394;2023-02-18T06:39:24;31.57;;;9.90;;
25327;SDS011;13279;51.300;12.394;2023-02-18T06:41:52;20.17;;;9.77;;
25327;SDS011;13279;51.300;12.394;2023-02-18T06:44:20;20.50;;;9.77;;
25327;SDS011;13279;51.300;12.394;2023-02-18T06:46:49;25.43;;;9.70;;
25327;SDS011;13279;51.300;12.394;2023-02-18T06:49:23;21.43;;;9.63;;
25327;SDS011;13279;51.300;12.394;2023-02-18T06:51:51;22.43;;;9.73;;
25327;SDS011;13279;51.300;12.394;2023-02-18T06:54:18;20.13;;;9.50;;
25327;SDS011;13279;51.300;12.394;2023-02-18T06:56:45;18.63;;;8.93;;
25327;SDS011;13279;51.300;12.394;2023-02-18T06:59:14;21.43;;;9.97;;
25327;SDS011;13279;51.300;12.394;2023-02-18T07:01:41;20.43;;;9.67;;
25327;SDS011;13279;51.300;12.394;2023-02-18T07:04:11;26.67;;;10.00;;
25327;SDS011;13279;51.300;12.394;2023-02-18T07:06:38;21.70;;;10.07;;
25327;SDS011;13279;51.300;12.394;2023-02-18T07:09:06;19.73;;;9.43;;
25327;SDS011;13279;51.300;12.394;2023-02-18T07:11:33;28.37;;;10.63;;
25327;SDS011;13279;51.300;12.394;2023-02-18T07:14:01;22.57;;;9.40;;
25327;SDS011;13279;51.300;12.394;2023-02-18T07:16:28;21.87;;;10.83;;
25327;SDS011;13279;51.300;12.394;2023-02-18T07:18:55;23.23;;;10.17;;
25327;SDS011;13279;51.300;12.394;2023-02-18T07:21:24;24.10;;;9.30;;
25327;SDS011;13279;51.300;12.394;2023-02-18T07:23:52;20.00;;;9.80;;
25327;SDS011;13279;51.300;12.394;2023-02-18T07:26:19;20.70;;;9.73;;
25327;SDS011;13279;51.300;12.394;2023-02-18T07:28:47;19.63;;;9.80;;
25327;SDS011;13279;51.300;12.394;2023-02-18T07:31:14;21.30;;;8.43;;
25327;SDS011;13279;51.300;12.394;2023-02-18T07:33:42;22.30;;;9.00;;
25327;SDS011;13279;51.300;12.394;2023-02-18T07:36:09;20.47;;;8.40;;
25327;SDS011;13279;51.300;12.394;2023-02-18T07:38:38;18.40;;;8.17;;
25327;SDS011;13279;51.300;12.394;2023-02-18T07:41:06;19.80;;;7.40;;
25327;SDS011;13279;51.300;12.394;2023-02-18T07:43:38;16.37;;;8.17;;
25327;SDS011;13279;51.300;12.394;2023-02-18T07:46:05;13.87;;;7.63;;
25327;SDS011;13279;51.300;12.394;2023-02-18T07:48:33;12.97;;;7.97;;
25327;SDS011;13279;51.300;12.394;2023-02-18T07:51:03;15.23;;;8.27;;
25327;SDS011;13279;51.300;12.394;2023-02-18T07:53:32;18.57;;;8.43;;
25327;SDS011;13279;51.300;12.394;2023-02-18T07:56:00;17.13;;;8.03;;
25327;SDS011;13279;51.300;12.394;2023-02-18T07:58:29;14.70;;;8.57;;
25327;SDS011;13279;51.300;12.394;2023-02-18T08:00:58;14.47;;;7.83;;
25327;SDS011;13279;51.300;12.394;2023-02-18T08:03:27;12.50;;;6.73;;
25327;SDS011;13279;51.300;12.394;2023-02-18T08:05:57;13.87;;;7.07;;
25327;SDS011;13279;51.300;12.394;2023-02-18T08:08:25;12.13;;;6.83;;
25327;SDS011;13279;51.300;12.394;2023-02-18T08:10:55;13.30;;;6.33;;
25327;SDS011;13279;51.300;12.394;2023-02-18T08:13:25;14.43;;;5.97;;
25327;SDS011;13279;51.300;12.394;2023-02-18T08:15:53;8.53;;;5.83;;
25327;SDS011;13279;51.300;12.394;2023-02-18T08:18:24;6.87;;;5.27;;
25327;SDS011;13279;51.300;12.394;2023-02-18T08:20:52;7.07;;;4.77;;
25327;SDS011;13279;51.300;12.394;2023-02-18T08:23:20;6.63;;;4.17;;
25327;SDS011;13279;51.300;12.394;2023-02-18T08:25:50;6.67;;;3.70;;
25327;SDS011;13279;51.300;12.394;2023-02-18T08:28:19;5.30;;;3.97;;
25327;SDS011;13279;51.300;12.394;2023-02-18T08:30:50;5.03;;;3.43;;
25327;SDS011;13279;51.300;12.394;2023-02-18T08:33:19;2.70;;;2.50;;
25327;SDS011;13279;51.300;12.394;2023-02-18T08:35:48;2.43;;;2.30;;
25327;SDS011;13279;51.300;12.394;2023-02-18T08:38:16;4.60;;;2.50;;
25327;SDS011;13279;51.300;12.394;2023-02-18T08:40:44;4.27;;;2.17;;
25327;SDS011;13279;51.300;12.394;2023-02-18T08:43:12;2.53;;;1.77;;
25327;SDS011;13279;51.300;12.394;2023-02-18T08:45:40;3.50;;;1.80;;
25327;SDS011;13279;51.300;12.394;2023-02-18T08:48:10;3.40;;;1.57;;
25327;SDS011;13279;51.300;12.394;2023-02-18T08:50:40;1.63;;;1.53;;
25327;SDS011;13279;51.300;12.394;2023-02-18T08:53:07;1.80;;;1.47;;
25327;SDS011;13279;51.300;12.394;2023-02-18T08:55:35;1.17;;;1.17;;
25327;SDS011;13279;51.300;12.394;2023-02-18T08:58:05;1.37;;;1.27;;
25327;SDS011;13279;51.300;12.394;2023-02-18T09:00:33;4.00;;;1.60;;
25327;SDS011;13279;51.300;12.394;2023-02-18T09:03:01;6.17;;;1.40;;
25327;SDS011;13279;51.300;12.394;2023-02-18T09:05:31;0.83;;;0.83;;
25327;SDS011;13279;51.300;12.394;2023-02-18T09:07:58;1.37;;;1.20;;
25327;SDS011;13279;51.300;12.394;2023-02-18T09:10:25;3.00;;;1.10;;
25327;SDS011;13279;51.300;12.394;2023-02-18T09:12:53;2.67;;;0.83;;
25327;SDS011;13279;51.300;12.394;2023-02-18T09:15:21;0.83;;;0.83;;
25327;SDS011;13279;51.300;12.394;2023-02-18T09:17:48;5.93;;;0.80;;
25327;SDS011;13279;51.300;12.394;2023-02-18T09:20:15;0.80;;;0.80;;
25327;SDS011;13279;51.300;12.394;2023-02-18T09:22:44;0.77;;;0.77;;
25327;SDS011;13279;51.300;12.394;2023-02-18T09:25:12;0.50;;;0.50;;
25327;SDS011;13279;51.300;12.394;2023-02-18T09:27:39;0.70;;;0.70;;
25327;SDS011;13279;51.300;12.394;2023-02-18T09:30:07;1.03;;;0.80;;
25327;SDS011;13279;51.300;12.394;2023-02-18T09:32:34;2.30;;;0.60;;
25327;SDS011;13279;51.300;12.394;2023-02-18T09:35:02;12.63;;;5.97;;
25327;SDS011;13279;51.300;12.394;2023-02-18T09:37:30;0.53;;;0.53;;
25327;SDS011;13279;51.300;12.394;2023-02-18T09:39:59;2.10;;;1.03;;
25327;SDS011;13279;51.300;12.394;2023-02-18T09:42:27;0.90;;;0.90;;
25327;SDS011;13279;51.300;12.394;2023-02-18T09:44:58;0.90;;;0.70;;
25327;SDS011;13279;51.300;12.394;2023-02-18T09:47:30;3.40;;;2.00;;
25327;SDS011;13279;51.300;12.394;2023-02-18T09:50:03;4.70;;;1.20;;
25327;SDS011;13279;51.300;12.394;2023-02-18T09:52:34;0.87;;;0.60;;
25327;SDS011;13279;51.300;12.394;2023-02-18T09:55:16;0.83;;;0.60;;
25327;SDS011;13279;51.300;12.394;2023-02-18T09:57:46;0.73;;;0.47;;
25327;SDS011;13279;51.300;12.394;2023-02-18T10:00:18;0.40;;;0.40;;
25327;SDS011;13279;51.300;12.394;2023-02-18T10:02:51;3.80;;;0.70;;
25327;SDS011;13279;51.300;12.394;2023-02-18T10:05:22;1.20;;;0.30;;
25327;SDS011;13279;51.300;12.394;2023-02-18T10:07:52;1.03;;;0.60;;
25327;SDS011;13279;51.300;12.394;2023-02-18T10:10:29;0.60;;;0.60;;
25327;SDS011;13279;51.300;12.394;2023-02-18T10:13:02;0.30;;;0.30;;
25327;SDS011;13279;51.300;12.394;2023-02-18T10:15:30;0.37;;;0.37;;
25327;SDS011;13279;51.300;12.394;2023-02-18T10:17:58;1.63;;;0.50;;
25327;SDS011;13279;51.300;12.394;2023-02-18T10:20:28;0.53;;;0.40;;
25327;SDS011;13279;51.300;12.394;2023-02-18T10:22:58;0.30;;;0.30;;
25327;SDS011;13279;51.300;12.394;2023-02-18T10:25:28;0.20;;;0.20;;
25327;SDS011;13279;51.300;12.394;2023-02-18T10:27:57;0.10;;;0.10;;
25327;SDS011;13279;51.300;12.394;2023-02-18T10:30:27;0.20;;;0.20;;
25327;SDS011;13279;51.300;12.394;2023-02-18T10:33:13;0.17;;;0.17;;
25327;SDS011;13279;51.300;12.394;2023-02-18T10:35:53;0.20;;;0.20;;
25327;SDS011;13279;51.300;12.394;2023-02-18T10:38:30;0.20;;;0.20;;
25327;SDS011;13279;51.300;12.394;2023-02-18T10:41:08;0.50;;;0.40;;
25327;SDS011;13279;51.300;12.394;2023-02-18T10:43:44;1.03;;;0.37;;
25327;SDS011;13279;51.300;12.394;2023-02-18T10:46:21;0.30;;;0.30;;
25327;SDS011;13279;51.300;12.394;2023-02-18T10:49:01;0.20;;;0.20;;
25327;SDS011;13279;51.300;12.394;2023-02-18T10:51:36;2.33;;;0.20;;
25327;SDS011;13279;51.300;12.394;2023-02-18T10:54:08;0.20;;;0.20;;
25327;SDS011;13279;51.300;12.394;2023-02-18T10:56:38;0.30;;;0.30;;
25327;SDS011;13279;51.300;12.394;2023-02-18T10:59:12;0.77;;;0.10;;
25327;SDS011;13279;51.300;12.394;2023-02-18T11:01:44;0.53;;;0.40;;
25327;SDS011;13279;51.300;12.394;2023-02-18T11:04:13;3.57;;;3.27;;
25327;SDS011;13279;51.300;12.394;2023-02-18T11:06:43;0.43;;;0.30;;
25327;SDS011;13279;51.300;12.394;2023-02-18T11:12:02;0.20;;;0.20;;
25327;SDS011;13279;51.300;12.394;2023-02-18T11:14:37;0.10;;;0.10;;
25327;SDS011;13279;51.300;12.394;2023-02-18T11:17:13;0.43;;;0.20;;
25327;SDS011;13279;51.300;12.394;2023-02-18T11:19:50;0.23;;;0.20;;
25327;SDS011;13279;51.300;12.394;2023-02-18T11:22:20;0.20;;;0.20;;
25327;SDS011;13279;51.300;12.394;2023-02-18T11:24:52;0.20;;;0.20;;
25327;SDS011;13279;51.300;12.394;2023-02-18T11:27:23;0.50;;;0.50;;
25327;SDS011;13279;51.300;12.394;2023-02-18T11:29:55;0.20;;;0.20;;
25327;SDS011;13279;51.300;12.394;2023-02-18T11:32:28;0.30;;;0.30;;
25327;SDS011;13279;51.300;12.394;2023-02-18T11:34:59;0.00;;;0.00;;
25327;SDS011;13279;51.300;12.394;2023-02-18T11:37:27;0.40;;;0.20;;
25327;SDS011;13279;51.300;12.394;2023-02-18T11:39:59;1.17;;;0.20;;
25327;SDS011;13279;51.300;12.394;2023-02-18T11:42:28;0.90;;;0.60;;
25327;SDS011;13279;51.300;12.394;2023-02-18T11:44:57;0.30;;;0.30;;
25327;SDS011;13279;51.300;12.394;2023-02-18T11:47:26;0.73;;;0.20;;
25327;SDS011;13279;51.300;12.394;2023-02-18T11:52:48;0.40;;;0.40;;
25327;SDS011;13279;51.300;12.394;2023-02-18T11:55:19;0.57;;;0.50;;
25327;SDS011;13279;51.300;12.394;2023-02-18T11:57:52;0.37;;;0.37;;
25327;SDS011;13279;51.300;12.394;2023-02-18T12:00:23;0.50;;;0.50;;
25327;SDS011;13279;51.300;12.394;2023-02-18T12:02:59;0.27;;;0.27;;
25327;SDS011;13279;51.300;12.394;2023-02-18T12:05:32;1.27;;;1.17;;
25327;SDS011;13279;51.300;12.394;2023-02-18T12:08:04;0.40;;;0.40;;
25327;SDS011;13279;51.300;12.394;2023-02-18T12:10:38;0.30;;;0.30;;
25327;SDS011;13279;51.300;12.394;2023-02-18T12:13:16;0.30;;;0.30;;
25327;SDS011;13279;51.300;12.394;2023-02-18T12:15:51;0.43;;;0.30;;
25327;SDS011;13279;51.300;12.394;2023-02-18T12:18:38;0.50;;;0.30;;
25327;SDS011;13279;51.300;12.394;2023-02-18T12:21:25;0.20;;;0.20;;
25327;SDS011;13279;51.300;12.394;2023-02-18T12:24:05;0.30;;;0.30;;
25327;SDS011;13279;51.300;12.394;2023-02-18T12:26:46;0.40;;;0.30;;
25327;SDS011;13279;51.300;12.394;2023-02-18T12:29:34;0.30;;;0.20;;
25327;SDS011;13279;51.300;12.394;2023-02-18T12:32:20;0.40;;;0.40;;
25327;SDS011;13279;51.300;12.394;2023-02-18T12:34:58;0.47;;;0.47;;
25327;SDS011;13279;51.300;12.394;2023-02-18T12:37:40;0.30;;;0.30;;
25327;SDS011;13279;51.300;12.394;2023-02-18T12:43:32;0.20;;;0.20;;
25327;SDS011;13279;51.300;12.394;2023-02-18T12:46:14;0.23;;;0.23;;
25327;SDS011;13279;51.300;12.394;2023-02-18T12:49:02;0.30;;;0.30;;
25327;SDS011;13279;51.300;12.394;2023-02-18T12:52:01;0.30;;;0.30;;
25327;SDS011;13279;51.300;12.394;2023-02-18T12:54:44;0.73;;;0.20;;
25327;SDS011;13279;51.300;12.394;2023-02-18T12:57:33;0.23;;;0.23;;
25327;SDS011;13279;51.300;12.394;2023-02-18T13:00:17;0.30;;;0.30;;
25327;SDS011;13279;51.300;12.394;2023-02-18T13:06:08;3.33;;;0.30;;
25327;SDS011;13279;51.300;12.394;2023-02-18T13:08:49;0.47;;;0.23;;
25327;SDS011;13279;51.300;12.394;2023-02-18T13:11:28;3.03;;;0.93;;
25327;SDS011;13279;51.300;12.394;2023-02-18T13:14:03;1.63;;;1.20;;
25327;SDS011;13279;51.300;12.394;2023-02-18T13:16:38;2.47;;;0.60;;
25327;SDS011;13279;51.300;12.394;2023-02-18T13:19:13;3.17;;;1.13;;
25327;SDS011;13279;51.300;12.394;2023-02-18T13:21:44;0.30;;;0.30;;
25327;SDS011;13279;51.300;12.394;2023-02-18T13:24:15;1.03;;;1.00;;
25327;SDS011;13279;51.300;12.394;2023-02-18T13:26:50;3.03;;;1.90;;
25327;SDS011;13279;51.300;12.394;2023-02-18T13:29:26;9.63;;;5.80;;
25327;SDS011;13279;51.300;12.394;2023-02-18T13:32:00;10.43;;;5.90;;
25327;SDS011;13279;51.300;12.394;2023-02-18T13:34:38;2.63;;;2.43;;
25327;SDS011;13279;51.300;12.394;2023-02-18T13:37:13;0.53;;;0.53;;
25327;SDS011;13279;51.300;12.394;2023-02-18T13:39:48;3.10;;;1.03;;
25327;SDS011;13279;51.300;12.394;2023-02-18T13:42:35;0.73;;;0.40;;
25327;SDS011;13279;51.300;12.394;2023-02-18T13:45:21;0.20;;;0.20;;
25327;SDS011;13279;51.300;12.394;2023-02-18T13:47:53;0.57;;;0.40;;
25327;SDS011;13279;51.300;12.394;2023-02-18T13:50:24;0.50;;;0.50;;
25327;SDS011;13279;51.300;12.394;2023-02-18T13:53:18;0.73;;;0.50;;
25327;SDS011;13279;51.300;12.394;2023-02-18T13:55:52;0.67;;;0.43;;
25327;SDS011;13279;51.300;12.394;2023-02-18T13:58:23;0.27;;;0.27;;
25327;SDS011;13279;51.300;12.394;2023-02-18T14:00:55;0.30;;;0.30;;
25327;SDS011;13279;51.300;12.394;2023-02-18T14:03:49;1.13;;;1.13;;
25327;SDS011;13279;51.300;12.394;2023-02-18T14:06:27;0.57;;;0.40;;
25327;SDS011;13279;51.300;12.394;2023-02-18T14:12:15;0.50;;;0.40;;
25327;SDS011;13279;51.300;12.394;2023-02-18T14:18:19;0.70;;;0.50;;
25327;SDS011;13279;51.300;12.394;2023-02-18T14:20:50;1.80;;;0.67;;
25327;SDS011;13279;51.300;12.394;2023-02-18T14:26:17;0.60;;;0.60;;
25327;SDS011;13279;51.300;12.394;2023-02-18T14:28:54;0.50;;;0.50;;
25327;SDS011;13279;51.300;12.394;2023-02-18T14:31:40;0.70;;;0.70;;
25327;SDS011;13279;51.300;12.394;2023-02-18T14:40:52;1.13;;;0.80;;
25327;SDS011;13279;51.300;12.394;2023-02-18T14:43:43;0.60;;;0.60;;
25327;SDS011;13279;51.300;12.394;2023-02-18T14:46:29;1.10;;;0.50;;
25327;SDS011;13279;51.300;12.394;2023-02-18T14:49:11;1.27;;;0.43;;
25327;SDS011;13279;51.300;12.394;2023-02-18T14:51:50;1.17;;;0.50;;
25327;SDS011;13279;51.300;12.394;2023-02-18T14:54:19;2.10;;;0.40;;
25327;SDS011;13279;51.300;12.394;2023-02-18T14:56:55;1.43;;;0.57;;
25327;SDS011;13279;51.300;12.394;2023-02-18T14:59:25;1.30;;;0.77;;
25327;SDS011;13279;51.300;12.394;2023-02-18T15:01:57;0.60;;;0.60;;
25327;SDS011;13279;51.300;12.394;2023-02-18T15:04:25;2.30;;;1.10;;
25327;SDS011;13279;51.300;12.394;2023-02-18T15:06:59;2.90;;;1.10;;
25327;SDS011;13279;51.300;12.394;2023-02-18T15:09:29;2.17;;;0.60;;
25327;SDS011;13279;51.300;12.394;2023-02-18T15:11:59;0.70;;;0.70;;
25327;SDS011;13279;51.300;12.394;2023-02-18T15:14:29;0.70;;;0.70;;
25327;SDS011;13279;51.300;12.394;2023-02-18T15:17:01;2.07;;;0.60;;
25327;SDS011;13279;51.300;12.394;2023-02-18T15:19:31;8.03;;;0.50;;
25327;SDS011;13279;51.300;12.394;2023-02-18T15:22:05;2.00;;;1.43;;
25327;SDS011;13279;51.300;12.394;2023-02-18T15:24:41;1.60;;;0.70;;
25327;SDS011;13279;51.300;12.394;2023-02-18T15:27:11;0.87;;;0.70;;
25327;SDS011;13279;51.300;12.394;2023-02-18T15:29:41;3.37;;;1.17;;